Irvington, Iowa
Current Conditions -  °F | °C
As of 5:55 AM on Thursday 23 Oct 2014 (Local Time) from KAXA Reporting Station
Haze Haze  
Wind Chill: 12°   Ceiling: 400
Heat Index: 12°   Visibility: 1.2mi
Dew Point: 12°   Wind: 9mph
Humidity: 100%   Direction: 180°S
Pressure: 30.02"   Gusts: NA
Location:  42.991°N, 94.0912°W
Report Text: KAXA 231055Z AUTO 18008KT 1 1/4SM BR OVC004 12/12 A3002 RMK AO2
Loading
Personal Weather Stations






























Interactive Weather Map
Tropical Storm Tracking
New forecast layout! Learn more

10-Day Weather Forecast

Advertisements
Track Severe Weather on mobile